sensor_id;sensor_type;location;lat;lon;timestamp;P1;durP1;ratioP1;P2;durP2;ratioP2
63312;SDS011;49442;45.640;13.812;2023-03-03T00:02:23;5.53;;;3.55;;
63312;SDS011;49442;45.640;13.812;2023-03-03T00:04:49;5.40;;;3.22;;
63312;SDS011;49442;45.640;13.812;2023-03-03T00:07:15;7.55;;;3.78;;
63312;SDS011;49442;45.640;13.812;2023-03-03T00:09:47;6.30;;;3.83;;
63312;SDS011;49442;45.640;13.812;2023-03-03T00:12:23;5.57;;;3.65;;
63312;SDS011;49442;45.640;13.812;2023-03-03T00:14:51;5.05;;;3.10;;
63312;SDS011;49442;45.640;13.812;2023-03-03T00:17:21;6.80;;;3.80;;
63312;SDS011;49442;45.640;13.812;2023-03-03T00:22:36;6.53;;;3.03;;
63312;SDS011;49442;45.640;13.812;2023-03-03T00:25:19;7.72;;;3.60;;
63312;SDS011;49442;45.640;13.812;2023-03-03T00:27:53;7.90;;;3.60;;
63312;SDS011;49442;45.640;13.812;2023-03-03T00:30:20;5.78;;;3.40;;
63312;SDS011;49442;45.640;13.812;2023-03-03T00:32:49;6.13;;;3.45;;
63312;SDS011;49442;45.640;13.812;2023-03-03T00:35:23;5.63;;;3.67;;
63312;SDS011;49442;45.640;13.812;2023-03-03T00:38:01;6.25;;;3.47;;
63312;SDS011;49442;45.640;13.812;2023-03-03T00:40:39;6.78;;;3.53;;
63312;SDS011;49442;45.640;13.812;2023-03-03T00:43:21;6.00;;;3.30;;
63312;SDS011;49442;45.640;13.812;2023-03-03T00:45:49;5.20;;;3.40;;
63312;SDS011;49442;45.640;13.812;2023-03-03T00:50:56;4.13;;;3.30;;
63312;SDS011;49442;45.640;13.812;2023-03-03T00:53:24;5.85;;;3.53;;
63312;SDS011;49442;45.640;13.812;2023-03-03T00:55:51;4.13;;;3.40;;
63312;SDS011;49442;45.640;13.812;2023-03-03T00:58:18;4.32;;;2.92;;
63312;SDS011;49442;45.640;13.812;2023-03-03T01:00:46;6.55;;;3.50;;
63312;SDS011;49442;45.640;13.812;2023-03-03T01:03:21;4.18;;;3.08;;
63312;SDS011;49442;45.640;13.812;2023-03-03T01:05:49;4.57;;;3.08;;
63312;SDS011;49442;45.640;13.812;2023-03-03T01:08:15;5.10;;;3.33;;
63312;SDS011;49442;45.640;13.812;2023-03-03T01:10:45;3.83;;;3.00;;
63312;SDS011;49442;45.640;13.812;2023-03-03T01:13:16;4.07;;;2.90;;
63312;SDS011;49442;45.640;13.812;2023-03-03T01:18:14;5.45;;;3.08;;
63312;SDS011;49442;45.640;13.812;2023-03-03T01:20:40;4.20;;;3.05;;
63312;SDS011;49442;45.640;13.812;2023-03-03T01:23:06;7.45;;;3.25;;
63312;SDS011;49442;45.640;13.812;2023-03-03T01:25:32;7.15;;;3.30;;
63312;SDS011;49442;45.640;13.812;2023-03-03T01:27:58;4.63;;;3.40;;
63312;SDS011;49442;45.640;13.812;2023-03-03T01:30:24;9.10;;;3.00;;
63312;SDS011;49442;45.640;13.812;2023-03-03T01:32:50;3.80;;;3.13;;
63312;SDS011;49442;45.640;13.812;2023-03-03T01:35:15;4.05;;;2.67;;
63312;SDS011;49442;45.640;13.812;2023-03-03T01:37:41;5.45;;;3.10;;
63312;SDS011;49442;45.640;13.812;2023-03-03T01:40:12;3.72;;;2.72;;
63312;SDS011;49442;45.640;13.812;2023-03-03T01:42:42;6.65;;;3.47;;
63312;SDS011;49442;45.640;13.812;2023-03-03T01:47:43;4.30;;;2.85;;
63312;SDS011;49442;45.640;13.812;2023-03-03T01:50:18;4.85;;;2.97;;
63312;SDS011;49442;45.640;13.812;2023-03-03T01:53:13;4.95;;;3.30;;
63312;SDS011;49442;45.640;13.812;2023-03-03T01:55:43;3.80;;;2.67;;
63312;SDS011;49442;45.640;13.812;2023-03-03T01:58:15;3.90;;;2.90;;
63312;SDS011;49442;45.640;13.812;2023-03-03T02:00:47;6.03;;;3.70;;
63312;SDS011;49442;45.640;13.812;2023-03-03T02:03:17;6.05;;;3.10;;
63312;SDS011;49442;45.640;13.812;2023-03-03T02:05:45;6.00;;;3.03;;
63312;SDS011;49442;45.640;13.812;2023-03-03T02:08:11;4.22;;;2.90;;
63312;SDS011;49442;45.640;13.812;2023-03-03T02:10:43;4.22;;;3.13;;
63312;SDS011;49442;45.640;13.812;2023-03-03T02:13:10;3.15;;;2.63;;
63312;SDS011;49442;45.640;13.812;2023-03-03T02:15:35;3.10;;;2.78;;
63312;SDS011;49442;45.640;13.812;2023-03-03T02:18:05;4.78;;;3.58;;
63312;SDS011;49442;45.640;13.812;2023-03-03T02:28:21;5.32;;;3.00;;
63312;SDS011;49442;45.640;13.812;2023-03-03T02:30:49;6.80;;;2.83;;
63312;SDS011;49442;45.640;13.812;2023-03-03T02:33:18;3.95;;;3.20;;
63312;SDS011;49442;45.640;13.812;2023-03-03T02:35:43;3.60;;;2.97;;
63312;SDS011;49442;45.640;13.812;2023-03-03T02:41:15;4.70;;;2.95;;
63312;SDS011;49442;45.640;13.812;2023-03-03T02:43:48;4.32;;;2.85;;
63312;SDS011;49442;45.640;13.812;2023-03-03T02:46:24;3.67;;;3.15;;
63312;SDS011;49442;45.640;13.812;2023-03-03T02:48:50;4.13;;;2.85;;
63312;SDS011;49442;45.640;13.812;2023-03-03T02:51:15;3.50;;;2.97;;
63312;SDS011;49442;45.640;13.812;2023-03-03T02:53:41;4.40;;;3.13;;
63312;SDS011;49442;45.640;13.812;2023-03-03T02:56:07;6.43;;;2.75;;
63312;SDS011;49442;45.640;13.812;2023-03-03T02:58:33;3.50;;;2.85;;
63312;SDS011;49442;45.640;13.812;2023-03-03T03:01:00;3.88;;;3.05;;
63312;SDS011;49442;45.640;13.812;2023-03-03T03:03:26;4.28;;;3.15;;
63312;SDS011;49442;45.640;13.812;2023-03-03T03:05:51;4.38;;;2.80;;
63312;SDS011;49442;45.640;13.812;2023-03-03T03:08:17;4.63;;;3.45;;
63312;SDS011;49442;45.640;13.812;2023-03-03T03:10:42;3.15;;;2.85;;
63312;SDS011;49442;45.640;13.812;2023-03-03T03:13:08;3.25;;;2.67;;
63312;SDS011;49442;45.640;13.812;2023-03-03T03:15:34;4.60;;;3.10;;
63312;SDS011;49442;45.640;13.812;2023-03-03T03:18:00;4.63;;;3.33;;
63312;SDS011;49442;45.640;13.812;2023-03-03T03:20:26;5.15;;;3.20;;
63312;SDS011;49442;45.640;13.812;2023-03-03T03:22:51;5.20;;;3.22;;
63312;SDS011;49442;45.640;13.812;2023-03-03T03:25:17;4.10;;;3.20;;
63312;SDS011;49442;45.640;13.812;2023-03-03T03:27:43;6.43;;;3.10;;
63312;SDS011;49442;45.640;13.812;2023-03-03T03:30:08;3.28;;;2.97;;
63312;SDS011;49442;45.640;13.812;2023-03-03T03:32:34;4.40;;;3.00;;
63312;SDS011;49442;45.640;13.812;2023-03-03T03:35:00;3.67;;;2.80;;
63312;SDS011;49442;45.640;13.812;2023-03-03T03:37:26;4.18;;;3.10;;
63312;SDS011;49442;45.640;13.812;2023-03-03T03:39:51;10.30;;;3.20;;
63312;SDS011;49442;45.640;13.812;2023-03-03T03:42:17;4.05;;;3.38;;
63312;SDS011;49442;45.640;13.812;2023-03-03T03:44:43;5.00;;;3.13;;
63312;SDS011;49442;45.640;13.812;2023-03-03T03:47:09;3.72;;;2.92;;
63312;SDS011;49442;45.640;13.812;2023-03-03T03:49:35;7.10;;;3.63;;
63312;SDS011;49442;45.640;13.812;2023-03-03T03:52:00;3.90;;;3.47;;
63312;SDS011;49442;45.640;13.812;2023-03-03T03:54:26;4.22;;;3.20;;
63312;SDS011;49442;45.640;13.812;2023-03-03T03:56:52;4.50;;;3.03;;
63312;SDS011;49442;45.640;13.812;2023-03-03T03:59:18;3.90;;;3.22;;
63312;SDS011;49442;45.640;13.812;2023-03-03T04:01:44;3.78;;;2.78;;
63312;SDS011;49442;45.640;13.812;2023-03-03T04:04:10;3.50;;;3.10;;
63312;SDS011;49442;45.640;13.812;2023-03-03T04:06:35;4.10;;;3.70;;
63312;SDS011;49442;45.640;13.812;2023-03-03T04:09:01;6.50;;;3.20;;
63312;SDS011;49442;45.640;13.812;2023-03-03T04:11:27;4.85;;;3.25;;
63312;SDS011;49442;45.640;13.812;2023-03-03T04:13:53;3.90;;;3.22;;
63312;SDS011;49442;45.640;13.812;2023-03-03T04:16:19;4.05;;;2.85;;
63312;SDS011;49442;45.640;13.812;2023-03-03T04:18:44;3.75;;;2.75;;
63312;SDS011;49442;45.640;13.812;2023-03-03T04:21:13;3.10;;;2.80;;
63312;SDS011;49442;45.640;13.812;2023-03-03T04:23:39;5.47;;;2.78;;
63312;SDS011;49442;45.640;13.812;2023-03-03T04:26:05;4.85;;;3.28;;
63312;SDS011;49442;45.640;13.812;2023-03-03T04:28:32;3.40;;;3.10;;
63312;SDS011;49442;45.640;13.812;2023-03-03T04:30:57;4.55;;;3.47;;
63312;SDS011;49442;45.640;13.812;2023-03-03T04:33:23;4.72;;;3.45;;
63312;SDS011;49442;45.640;13.812;2023-03-03T04:35:49;4.20;;;3.20;;
63312;SDS011;49442;45.640;13.812;2023-03-03T04:38:15;6.93;;;3.20;;
63312;SDS011;49442;45.640;13.812;2023-03-03T04:40:41;5.38;;;3.17;;
63312;SDS011;49442;45.640;13.812;2023-03-03T04:43:07;5.95;;;2.95;;
63312;SDS011;49442;45.640;13.812;2023-03-03T04:45:34;3.25;;;2.75;;
63312;SDS011;49442;45.640;13.812;2023-03-03T04:47:59;4.63;;;2.85;;
63312;SDS011;49442;45.640;13.812;2023-03-03T04:50:25;3.17;;;2.75;;
63312;SDS011;49442;45.640;13.812;2023-03-03T04:52:51;3.95;;;2.85;;
63312;SDS011;49442;45.640;13.812;2023-03-03T04:55:17;3.45;;;3.05;;
63312;SDS011;49442;45.640;13.812;2023-03-03T04:57:42;3.88;;;2.90;;
63312;SDS011;49442;45.640;13.812;2023-03-03T05:00:09;6.30;;;3.17;;
63312;SDS011;49442;45.640;13.812;2023-03-03T05:02:39;3.67;;;3.13;;
63312;SDS011;49442;45.640;13.812;2023-03-03T05:05:06;4.45;;;3.00;;
63312;SDS011;49442;45.640;13.812;2023-03-03T05:07:33;4.07;;;2.97;;
63312;SDS011;49442;45.640;13.812;2023-03-03T05:09:59;3.25;;;2.95;;
63312;SDS011;49442;45.640;13.812;2023-03-03T05:12:25;3.63;;;2.88;;
63312;SDS011;49442;45.640;13.812;2023-03-03T05:14:51;3.83;;;3.25;;
63312;SDS011;49442;45.640;13.812;2023-03-03T05:17:16;3.65;;;2.92;;
63312;SDS011;49442;45.640;13.812;2023-03-03T05:19:42;2.97;;;2.65;;
63312;SDS011;49442;45.640;13.812;2023-03-03T05:22:08;4.57;;;2.72;;
63312;SDS011;49442;45.640;13.812;2023-03-03T05:24:34;4.97;;;3.05;;
63312;SDS011;49442;45.640;13.812;2023-03-03T05:27:00;4.03;;;3.22;;
63312;SDS011;49442;45.640;13.812;2023-03-03T05:29:27;4.18;;;3.13;;
63312;SDS011;49442;45.640;13.812;2023-03-03T05:31:55;6.07;;;2.95;;
63312;SDS011;49442;45.640;13.812;2023-03-03T05:34:22;3.17;;;2.88;;
63312;SDS011;49442;45.640;13.812;2023-03-03T05:36:48;3.17;;;2.33;;
63312;SDS011;49442;45.640;13.812;2023-03-03T05:39:14;4.03;;;2.90;;
63312;SDS011;49442;45.640;13.812;2023-03-03T05:41:39;3.45;;;3.13;;
63312;SDS011;49442;45.640;13.812;2023-03-03T05:44:05;3.40;;;2.80;;
63312;SDS011;49442;45.640;13.812;2023-03-03T05:46:31;6.72;;;3.08;;
63312;SDS011;49442;45.640;13.812;2023-03-03T05:48:56;3.40;;;2.55;;
63312;SDS011;49442;45.640;13.812;2023-03-03T05:51:22;4.25;;;2.60;;
63312;SDS011;49442;45.640;13.812;2023-03-03T05:53:48;3.08;;;2.78;;
63312;SDS011;49442;45.640;13.812;2023-03-03T05:56:13;4.10;;;2.90;;
63312;SDS011;49442;45.640;13.812;2023-03-03T05:58:39;4.07;;;3.20;;
63312;SDS011;49442;45.640;13.812;2023-03-03T06:01:05;4.97;;;2.92;;
63312;SDS011;49442;45.640;13.812;2023-03-03T06:03:30;6.70;;;4.22;;
63312;SDS011;49442;45.640;13.812;2023-03-03T06:05:56;5.88;;;4.38;;
63312;SDS011;49442;45.640;13.812;2023-03-03T06:08:22;9.45;;;4.90;;
63312;SDS011;49442;45.640;13.812;2023-03-03T06:10:47;9.90;;;4.38;;
63312;SDS011;49442;45.640;13.812;2023-03-03T06:13:14;7.28;;;3.83;;
63312;SDS011;49442;45.640;13.812;2023-03-03T06:15:40;6.47;;;3.83;;
63312;SDS011;49442;45.640;13.812;2023-03-03T06:18:05;14.18;;;3.22;;
63312;SDS011;49442;45.640;13.812;2023-03-03T06:20:32;4.70;;;3.33;;
63312;SDS011;49442;45.640;13.812;2023-03-03T06:22:59;4.75;;;3.08;;
63312;SDS011;49442;45.640;13.812;2023-03-03T06:25:25;5.13;;;3.20;;
63312;SDS011;49442;45.640;13.812;2023-03-03T06:27:50;4.03;;;3.00;;
63312;SDS011;49442;45.640;13.812;2023-03-03T06:30:16;6.90;;;3.60;;
63312;SDS011;49442;45.640;13.812;2023-03-03T06:32:43;3.58;;;3.00;;
63312;SDS011;49442;45.640;13.812;2023-03-03T06:35:09;5.07;;;3.10;;
63312;SDS011;49442;45.640;13.812;2023-03-03T06:37:34;7.00;;;3.40;;
63312;SDS011;49442;45.640;13.812;2023-03-03T06:40:00;6.88;;;3.35;;
63312;SDS011;49442;45.640;13.812;2023-03-03T06:42:26;4.32;;;3.33;;
63312;SDS011;49442;45.640;13.812;2023-03-03T06:44:51;5.70;;;3.00;;
63312;SDS011;49442;45.640;13.812;2023-03-03T06:47:17;4.20;;;3.20;;
63312;SDS011;49442;45.640;13.812;2023-03-03T06:49:43;6.15;;;3.08;;
63312;SDS011;49442;45.640;13.812;2023-03-03T06:52:13;4.93;;;3.13;;
63312;SDS011;49442;45.640;13.812;2023-03-03T06:54:44;6.22;;;3.60;;
63312;SDS011;49442;45.640;13.812;2023-03-03T06:57:17;5.30;;;3.40;;
63312;SDS011;49442;45.640;13.812;2023-03-03T06:59:51;6.15;;;3.78;;
63312;SDS011;49442;45.640;13.812;2023-03-03T07:02:18;7.53;;;3.67;;
63312;SDS011;49442;45.640;13.812;2023-03-03T07:04:45;5.60;;;3.35;;
63312;SDS011;49442;45.640;13.812;2023-03-03T07:07:21;4.10;;;2.90;;
63312;SDS011;49442;45.640;13.812;2023-03-03T07:09:50;6.65;;;3.25;;
63312;SDS011;49442;45.640;13.812;2023-03-03T07:12:21;6.32;;;3.42;;
63312;SDS011;49442;45.640;13.812;2023-03-03T07:14:51;6.45;;;3.58;;
63312;SDS011;49442;45.640;13.812;2023-03-03T07:17:20;6.25;;;3.55;;
63312;SDS011;49442;45.640;13.812;2023-03-03T07:19:48;8.38;;;3.35;;
63312;SDS011;49442;45.640;13.812;2023-03-03T07:22:18;6.80;;;3.20;;
63312;SDS011;49442;45.640;13.812;2023-03-03T07:24:50;8.85;;;3.85;;
63312;SDS011;49442;45.640;13.812;2023-03-03T07:29:44;3.63;;;3.17;;
63312;SDS011;49442;45.640;13.812;2023-03-03T07:32:24;9.65;;;3.72;;
63312;SDS011;49442;45.640;13.812;2023-03-03T07:34:50;4.57;;;3.35;;
63312;SDS011;49442;45.640;13.812;2023-03-03T07:39:51;5.55;;;3.40;;
63312;SDS011;49442;45.640;13.812;2023-03-03T07:42:21;5.40;;;3.28;;
63312;SDS011;49442;45.640;13.812;2023-03-03T07:44:54;7.80;;;4.03;;
63312;SDS011;49442;45.640;13.812;2023-03-03T07:47:28;9.95;;;3.78;;
63312;SDS011;49442;45.640;13.812;2023-03-03T07:49:59;5.15;;;2.92;;
63312;SDS011;49442;45.640;13.812;2023-03-03T07:52:39;7.20;;;4.03;;
63312;SDS011;49442;45.640;13.812;2023-03-03T07:57:54;5.80;;;3.40;;
63312;SDS011;49442;45.640;13.812;2023-03-03T08:05:34;6.90;;;3.35;;
63312;SDS011;49442;45.640;13.812;2023-03-03T08:10:54;3.47;;;2.72;;
63312;SDS011;49442;45.640;13.812;2023-03-03T08:16:01;7.80;;;3.05;;
63312;SDS011;49442;45.640;13.812;2023-03-03T08:18:36;9.52;;;3.38;;
63312;SDS011;49442;45.640;13.812;2023-03-03T08:23:33;7.05;;;3.28;;
63312;SDS011;49442;45.640;13.812;2023-03-03T08:25:58;5.68;;;3.25;;
63312;SDS011;49442;45.640;13.812;2023-03-03T08:28:24;7.25;;;3.13;;
63312;SDS011;49442;45.640;13.812;2023-03-03T08:30:50;5.50;;;2.75;;
63312;SDS011;49442;45.640;13.812;2023-03-03T08:33:15;8.02;;;3.30;;
63312;SDS011;49442;45.640;13.812;2023-03-03T08:35:42;6.43;;;3.20;;
63312;SDS011;49442;45.640;13.812;2023-03-03T08:38:08;5.60;;;3.05;;
63312;SDS011;49442;45.640;13.812;2023-03-03T08:40:34;7.45;;;3.40;;
63312;SDS011;49442;45.640;13.812;2023-03-03T08:43:00;4.45;;;2.67;;
63312;SDS011;49442;45.640;13.812;2023-03-03T08:45:26;5.78;;;3.28;;
63312;SDS011;49442;45.640;13.812;2023-03-03T08:47:53;3.90;;;3.08;;
63312;SDS011;49442;45.640;13.812;2023-03-03T08:50:18;6.07;;;3.25;;
63312;SDS011;49442;45.640;13.812;2023-03-03T08:52:44;12.50;;;3.38;;
63312;SDS011;49442;45.640;13.812;2023-03-03T08:55:11;5.10;;;3.33;;
63312;SDS011;49442;45.640;13.812;2023-03-03T08:57:37;7.53;;;3.25;;
63312;SDS011;49442;45.640;13.812;2023-03-03T09:00:04;18.45;;;3.78;;
63312;SDS011;49442;45.640;13.812;2023-03-03T09:02:31;16.35;;;3.80;;
63312;SDS011;49442;45.640;13.812;2023-03-03T09:04:56;15.25;;;3.63;;
63312;SDS011;49442;45.640;13.812;2023-03-03T09:07:22;9.40;;;3.40;;
63312;SDS011;49442;45.640;13.812;2023-03-03T09:09:48;9.32;;;3.47;;
63312;SDS011;49442;45.640;13.812;2023-03-03T09:12:18;8.82;;;3.60;;
63312;SDS011;49442;45.640;13.812;2023-03-03T09:14:46;14.65;;;3.30;;
63312;SDS011;49442;45.640;13.812;2023-03-03T09:17:23;9.73;;;3.28;;
63312;SDS011;49442;45.640;13.812;2023-03-03T09:19:59;10.80;;;3.63;;
63312;SDS011;49442;45.640;13.812;2023-03-03T09:22:43;16.35;;;4.20;;
63312;SDS011;49442;45.640;13.812;2023-03-03T09:25:21;10.00;;;3.38;;
63312;SDS011;49442;45.640;13.812;2023-03-03T09:27:55;10.05;;;4.07;;
63312;SDS011;49442;45.640;13.812;2023-03-03T09:35:57;15.68;;;3.95;;
63312;SDS011;49442;45.640;13.812;2023-03-03T09:38:32;14.57;;;3.88;;
63312;SDS011;49442;45.640;13.812;2023-03-03T10:13:25;4.78;;;3.10;;
63312;SDS011;49442;45.640;13.812;2023-03-03T10:16:27;4.78;;;2.80;;
63312;SDS011;49442;45.640;13.812;2023-03-03T10:21:48;6.25;;;2.38;;
63312;SDS011;49442;45.640;13.812;2023-03-03T10:30:19;6.53;;;2.88;;
63312;SDS011;49442;45.640;13.812;2023-03-03T10:32:48;7.18;;;2.72;;
63312;SDS011;49442;45.640;13.812;2023-03-03T10:40:34;3.00;;;2.65;;
63312;SDS011;49442;45.640;13.812;2023-03-03T10:57:56;3.50;;;2.53;;
63312;SDS011;49442;45.640;13.812;2023-03-03T11:00:20;8.30;;;2.47;;
63312;SDS011;49442;45.640;13.812;2023-03-03T11:06:05;6.78;;;3.03;;
63312;SDS011;49442;45.640;13.812;2023-03-03T11:08:53;5.57;;;2.95;;
63312;SDS011;49442;45.640;13.812;2023-03-03T11:14:22;5.93;;;2.10;;
63312;SDS011;49442;45.640;13.812;2023-03-03T11:22:41;4.03;;;2.33;;
63312;SDS011;49442;45.640;13.812;2023-03-03T11:39:15;3.25;;;2.00;;
63312;SDS011;49442;45.640;13.812;2023-03-03T11:45:46;3.13;;;2.00;;
63312;SDS011;49442;45.640;13.812;2023-03-03T11:50:35;2.75;;;2.30;;
63312;SDS011;49442;45.640;13.812;2023-03-03T12:01:41;2.97;;;2.22;;
63312;SDS011;49442;45.640;13.812;2023-03-03T12:04:17;3.33;;;1.97;;
63312;SDS011;49442;45.640;13.812;2023-03-03T12:09:43;2.95;;;2.00;;
63312;SDS011;49442;45.640;13.812;2023-03-03T12:12:35;2.65;;;1.75;;
63312;SDS011;49442;45.640;13.812;2023-03-03T12:15:18;2.85;;;2.17;;
63312;SDS011;49442;45.640;13.812;2023-03-03T12:26:24;3.05;;;2.42;;
63312;SDS011;49442;45.640;13.812;2023-03-03T12:29:34;2.58;;;1.70;;
63312;SDS011;49442;45.640;13.812;2023-03-03T12:40:51;3.20;;;1.80;;
63312;SDS011;49442;45.640;13.812;2023-03-03T12:46:37;4.25;;;2.00;;
63312;SDS011;49442;45.640;13.812;2023-03-03T12:49:09;2.67;;;2.03;;
63312;SDS011;49442;45.640;13.812;2023-03-03T12:57:15;3.95;;;2.00;;
63312;SDS011;49442;45.640;13.812;2023-03-03T13:08:34;2.10;;;1.90;;
63312;SDS011;49442;45.640;13.812;2023-03-03T13:13:59;1.70;;;1.60;;
63312;SDS011;49442;45.640;13.812;2023-03-03T13:16:51;2.38;;;1.80;;
63312;SDS011;49442;45.640;13.812;2023-03-03T13:19:43;2.10;;;1.90;;
63312;SDS011;49442;45.640;13.812;2023-03-03T13:28:03;1.95;;;1.70;;
63312;SDS011;49442;45.640;13.812;2023-03-03T13:30:57;2.55;;;2.00;;
63312;SDS011;49442;45.640;13.812;2023-03-03T13:33:28;3.95;;;2.10;;
63312;SDS011;49442;45.640;13.812;2023-03-03T13:36:04;2.10;;;1.58;;
63312;SDS011;49442;45.640;13.812;2023-03-03T13:38:39;3.03;;;1.63;;
63312;SDS011;49442;45.640;13.812;2023-03-03T13:41:14;1.58;;;1.40;;
63312;SDS011;49442;45.640;13.812;2023-03-03T13:52:07;3.15;;;1.90;;
63312;SDS011;49442;45.640;13.812;2023-03-03T13:57:36;1.88;;;1.70;;
63312;SDS011;49442;45.640;13.812;2023-03-03T14:00:20;4.43;;;1.77;;
63312;SDS011;49442;45.640;13.812;2023-03-03T14:05:58;2.60;;;1.90;;
63312;SDS011;49442;45.640;13.812;2023-03-03T14:11:25;2.05;;;1.85;;
63312;SDS011;49442;45.640;13.812;2023-03-03T14:19:26;6.53;;;1.90;;
63312;SDS011;49442;45.640;13.812;2023-03-03T14:27:24;2.33;;;1.92;;
63312;SDS011;49442;45.640;13.812;2023-03-03T14:29:51;9.07;;;2.05;;
63312;SDS011;49442;45.640;13.812;2023-03-03T14:32:25;3.25;;;2.40;;
63312;SDS011;49442;45.640;13.812;2023-03-03T14:34:56;5.60;;;2.28;;
63312;SDS011;49442;45.640;13.812;2023-03-03T14:37:27;2.10;;;1.90;;
63312;SDS011;49442;45.640;13.812;2023-03-03T14:40:13;2.80;;;1.90;;
63312;SDS011;49442;45.640;13.812;2023-03-03T14:45:20;2.95;;;2.30;;
63312;SDS011;49442;45.640;13.812;2023-03-03T14:47:58;2.53;;;1.77;;
63312;SDS011;49442;45.640;13.812;2023-03-03T14:50:39;4.22;;;2.35;;
63312;SDS011;49442;45.640;13.812;2023-03-03T14:53:13;4.20;;;2.20;;
63312;SDS011;49442;45.640;13.812;2023-03-03T14:55:43;4.20;;;2.67;;
63312;SDS011;49442;45.640;13.812;2023-03-03T14:58:37;4.07;;;2.70;;
63312;SDS011;49442;45.640;13.812;2023-03-03T15:01:06;4.07;;;3.30;;
63312;SDS011;49442;45.640;13.812;2023-03-03T15:03:33;4.93;;;3.20;;
63312;SDS011;49442;45.640;13.812;2023-03-03T15:06:09;5.05;;;3.75;;
63312;SDS011;49442;45.640;13.812;2023-03-03T15:08:39;5.70;;;3.45;;
63312;SDS011;49442;45.640;13.812;2023-03-03T15:11:13;4.20;;;3.30;;
63312;SDS011;49442;45.640;13.812;2023-03-03T15:13:42;5.95;;;3.88;;
63312;SDS011;49442;45.640;13.812;2023-03-03T15:19:13;5.93;;;3.88;;
63312;SDS011;49442;45.640;13.812;2023-03-03T15:22:36;5.88;;;3.78;;
63312;SDS011;49442;45.640;13.812;2023-03-03T15:24:51;4.13;;;3.50;;
63312;SDS011;49442;45.640;13.812;2023-03-03T15:27:34;6.53;;;4.53;;
63312;SDS011;49442;45.640;13.812;2023-03-03T15:38:16;4.63;;;3.70;;
63312;SDS011;49442;45.640;13.812;2023-03-03T15:41:01;6.30;;;4.00;;
63312;SDS011;49442;45.640;13.812;2023-03-03T15:43:36;4.97;;;3.88;;
63312;SDS011;49442;45.640;13.812;2023-03-03T15:46:21;5.05;;;3.67;;
63312;SDS011;49442;45.640;13.812;2023-03-03T15:54:47;5.32;;;4.00;;
63312;SDS011;49442;45.640;13.812;2023-03-03T16:02:57;4.88;;;3.97;;
63312;SDS011;49442;45.640;13.812;2023-03-03T16:05:48;6.63;;;4.13;;
63312;SDS011;49442;45.640;13.812;2023-03-03T16:08:20;5.35;;;4.05;;
63312;SDS011;49442;45.640;13.812;2023-03-03T16:14:21;6.50;;;4.63;;
63312;SDS011;49442;45.640;13.812;2023-03-03T16:19:48;5.82;;;4.18;;
63312;SDS011;49442;45.640;13.812;2023-03-03T16:28:00;5.25;;;3.83;;
63312;SDS011;49442;45.640;13.812;2023-03-03T16:30:59;5.80;;;4.57;;
63312;SDS011;49442;45.640;13.812;2023-03-03T16:33:33;10.98;;;4.28;;
63312;SDS011;49442;45.640;13.812;2023-03-03T16:41:45;5.22;;;3.83;;
63312;SDS011;49442;45.640;13.812;2023-03-03T16:47:11;6.47;;;4.00;;
63312;SDS011;49442;45.640;13.812;2023-03-03T16:52:39;6.07;;;4.28;;
63312;SDS011;49442;45.640;13.812;2023-03-03T16:55:23;4.93;;;4.07;;
63312;SDS011;49442;45.640;13.812;2023-03-03T17:00:28;5.13;;;3.83;;
63312;SDS011;49442;45.640;13.812;2023-03-03T17:03:12;6.47;;;4.63;;
63312;SDS011;49442;45.640;13.812;2023-03-03T17:06:05;6.78;;;4.25;;
63312;SDS011;49442;45.640;13.812;2023-03-03T17:22:37;5.53;;;4.40;;
63312;SDS011;49442;45.640;13.812;2023-03-03T17:25:36;7.40;;;5.30;;
63312;SDS011;49442;45.640;13.812;2023-03-03T17:31:59;5.55;;;4.90;;
63312;SDS011;49442;45.640;13.812;2023-03-03T17:39:30;5.88;;;4.53;;
63312;SDS011;49442;45.640;13.812;2023-03-03T17:42:29;6.95;;;4.40;;
63312;SDS011;49442;45.640;13.812;2023-03-03T17:45:10;6.10;;;4.03;;
63312;SDS011;49442;45.640;13.812;2023-03-03T17:58:58;10.93;;;5.10;;
63312;SDS011;49442;45.640;13.812;2023-03-03T18:29:04;7.25;;;5.22;;
63312;SDS011;49442;45.640;13.812;2023-03-03T18:42:07;7.00;;;5.57;;
63312;SDS011;49442;45.640;13.812;2023-03-03T18:44:40;7.80;;;5.22;;
63312;SDS011;49442;45.640;13.812;2023-03-03T18:47:11;9.23;;;6.05;;
63312;SDS011;49442;45.640;13.812;2023-03-03T18:52:29;12.87;;;5.93;;
63312;SDS011;49442;45.640;13.812;2023-03-03T18:57:35;9.18;;;5.80;;
63312;SDS011;49442;45.640;13.812;2023-03-03T19:02:52;11.13;;;6.45;;
63312;SDS011;49442;45.640;13.812;2023-03-03T19:05:23;15.13;;;6.40;;
63312;SDS011;49442;45.640;13.812;2023-03-03T19:08:00;12.02;;;6.55;;
63312;SDS011;49442;45.640;13.812;2023-03-03T19:16:03;8.73;;;5.82;;
63312;SDS011;49442;45.640;13.812;2023-03-03T19:18:34;17.98;;;6.22;;
63312;SDS011;49442;45.640;13.812;2023-03-03T19:21:21;13.50;;;6.75;;
63312;SDS011;49442;45.640;13.812;2023-03-03T19:27:03;13.38;;;7.47;;
63312;SDS011;49442;45.640;13.812;2023-03-03T19:29:52;14.32;;;7.70;;
63312;SDS011;49442;45.640;13.812;2023-03-03T20:06:00;13.38;;;8.20;;
63312;SDS011;49442;45.640;13.812;2023-03-03T20:08:40;15.90;;;8.43;;
63312;SDS011;49442;45.640;13.812;2023-03-03T20:16:25;13.10;;;7.82;;
63312;SDS011;49442;45.640;13.812;2023-03-03T20:19:20;12.48;;;7.93;;
63312;SDS011;49442;45.640;13.812;2023-03-03T20:27:08;14.00;;;7.68;;
63312;SDS011;49442;45.640;13.812;2023-03-03T20:29:57;13.02;;;7.60;;
63312;SDS011;49442;45.640;13.812;2023-03-03T20:37:45;10.45;;;6.78;;
63312;SDS011;49442;45.640;13.812;2023-03-03T21:04:21;7.50;;;6.05;;
63312;SDS011;49442;45.640;13.812;2023-03-03T21:06:53;9.80;;;6.90;;
63312;SDS011;49442;45.640;13.812;2023-03-03T21:09:26;11.82;;;6.43;;
63312;SDS011;49442;45.640;13.812;2023-03-03T21:12:00;9.52;;;6.45;;
63312;SDS011;49442;45.640;13.812;2023-03-03T21:15:02;9.25;;;5.75;;
63312;SDS011;49442;45.640;13.812;2023-03-03T21:17:31;9.80;;;6.07;;
63312;SDS011;49442;45.640;13.812;2023-03-03T21:20:16;11.48;;;6.45;;
63312;SDS011;49442;45.640;13.812;2023-03-03T21:22:44;12.35;;;5.57;;
63312;SDS011;49442;45.640;13.812;2023-03-03T21:36:22;7.03;;;5.25;;
63312;SDS011;49442;45.640;13.812;2023-03-03T21:39:04;8.73;;;6.20;;
63312;SDS011;49442;45.640;13.812;2023-03-03T21:46:56;7.53;;;5.28;;
63312;SDS011;49442;45.640;13.812;2023-03-03T21:49:22;7.03;;;5.60;;
63312;SDS011;49442;45.640;13.812;2023-03-03T21:51:47;9.10;;;5.47;;
63312;SDS011;49442;45.640;13.812;2023-03-03T21:54:13;9.20;;;5.65;;
63312;SDS011;49442;45.640;13.812;2023-03-03T21:56:38;11.05;;;6.13;;
63312;SDS011;49442;45.640;13.812;2023-03-03T21:59:06;7.65;;;5.28;;
63312;SDS011;49442;45.640;13.812;2023-03-03T22:01:33;8.98;;;5.35;;
63312;SDS011;49442;45.640;13.812;2023-03-03T22:03:59;8.05;;;6.18;;
63312;SDS011;49442;45.640;13.812;2023-03-03T22:06:25;8.13;;;6.10;;
63312;SDS011;49442;45.640;13.812;2023-03-03T22:08:51;9.27;;;6.63;;
63312;SDS011;49442;45.640;13.812;2023-03-03T22:11:17;7.03;;;5.47;;
63312;SDS011;49442;45.640;13.812;2023-03-03T22:13:43;8.25;;;5.38;;
63312;SDS011;49442;45.640;13.812;2023-03-03T22:16:08;7.45;;;5.85;;
63312;SDS011;49442;45.640;13.812;2023-03-03T22:18:36;9.57;;;5.80;;
63312;SDS011;49442;45.640;13.812;2023-03-03T22:21:01;7.10;;;5.82;;
63312;SDS011;49442;45.640;13.812;2023-03-03T22:23:27;7.15;;;5.70;;
63312;SDS011;49442;45.640;13.812;2023-03-03T22:25:53;7.15;;;5.38;;
63312;SDS011;49442;45.640;13.812;2023-03-03T22:28:19;7.03;;;5.05;;
63312;SDS011;49442;45.640;13.812;2023-03-03T22:30:44;8.85;;;5.90;;